createdAt,value
2023-04-08T00:00:46.244Z,61.00
2023-04-08T00:06:48.891Z,58.25
2023-04-08T00:12:57.036Z,60.00
2023-04-08T00:18:59.192Z,59.25
2023-04-08T00:25:02.134Z,59.00
2023-04-08T00:31:05.057Z,66.50
2023-04-08T00:37:07.516Z,58.25
2023-04-08T00:43:09.671Z,65.50
2023-04-08T00:49:13.005Z,62.25
2023-04-08T00:55:18.056Z,64.00
2023-04-08T01:01:32.149Z,66.25
2023-04-08T01:07:41.825Z,61.25
2023-04-08T01:13:46.535Z,59.00
2023-04-08T01:19:50.967Z,64.00
2023-04-08T01:25:54.516Z,61.25
2023-04-08T01:31:58.091Z,67.25
2023-04-08T01:38:05.878Z,59.25
2023-04-08T01:44:10.551Z,59.75
2023-04-08T01:50:14.023Z,53.75
2023-04-08T01:56:17.545Z,63.00
2023-04-08T02:02:25.399Z,64.25
2023-04-08T02:08:27.804Z,65.75
2023-04-08T02:14:30.429Z,61.50
2023-04-08T02:20:48.214Z,59.25
2023-04-08T02:26:52.374Z,62.50
2023-04-08T02:32:54.994Z,63.75
2023-04-08T02:38:59.088Z,64.75
2023-04-08T02:45:01.259Z,65.25
2023-04-08T02:51:04.414Z,63.50
2023-04-08T02:57:08.254Z,68.75
2023-04-08T03:03:11.151Z,68.50
2023-04-08T03:09:14.438Z,66.00
2023-04-08T03:15:17.297Z,74.00
2023-04-08T03:21:19.553Z,65.00
2023-04-08T03:27:22.874Z,67.25
2023-04-08T03:33:25.569Z,71.50
2023-04-08T03:39:28.938Z,76.25
2023-04-08T03:45:32.340Z,72.25
2023-04-08T03:51:34.585Z,76.00
2023-04-08T03:57:36.837Z,76.00
2023-04-08T04:03:39.077Z,74.00
2023-04-08T04:09:41.642Z,74.00
2023-04-08T04:15:45.792Z,68.00
